createdAt,value
2018-09-03T00:00:25.967Z,58
2018-09-03T00:05:28.722Z,67
2018-09-03T00:10:30.755Z,59
2018-09-03T00:15:33.205Z,63
2018-09-03T00:20:35.642Z,61
2018-09-03T00:25:38.344Z,64
2018-09-03T00:30:40.699Z,66
2018-09-03T00:35:43.019Z,64
2018-09-03T00:40:45.506Z,66
2018-09-03T00:45:47.856Z,64
2018-09-03T00:50:51.697Z,71
2018-09-03T00:56:01.847Z,73
2018-09-03T01:00:55.161Z,71
2018-09-03T01:05:57.620Z,67
2018-09-03T01:11:00.035Z,68
2018-09-03T01:16:02.865Z,71
2018-09-03T01:21:28.127Z,69
2018-09-03T01:31:25.802Z,72
2018-09-03T01:41:48.635Z,73
2018-09-03T01:56:23.012Z,68
2018-09-03T02:01:57.490Z,63
2018-09-03T02:08:09.768Z,64
2018-09-03T02:11:29.774Z,64
2018-09-03T02:21:34.258Z,62
2018-09-03T02:26:37.008Z,57
2018-09-03T02:31:39.200Z,61
2018-09-03T02:36:41.549Z,55
2018-09-03T02:41:44.049Z,56
2018-09-03T02:51:58.930Z,49
2018-09-03T02:56:57.345Z,53
2018-09-03T03:01:53.798Z,59
2018-09-03T03:06:56.178Z,58
2018-09-03T03:11:59.032Z,59
2018-09-03T03:17:01.062Z,64
2018-09-03T03:22:03.491Z,62
2018-09-03T03:27:05.939Z,66
2018-09-03T03:37:10.818Z,67
2018-09-03T03:42:36.399Z,70
2018-09-03T03:48:36.534Z,68
2018-09-03T03:52:18.882Z,78
2018-09-03T03:57:20.579Z,69
2018-09-03T04:02:30.309Z,73
2018-09-03T04:08:17.112Z,70
2018-09-03T04:12:28.097Z,68
2018-09-03T04:17:30.670Z,72
2018-09-03T04:22:32.815Z,66
2018-09-03T04:27:35.231Z,67
2018-09-03T04:32:37.741Z,59
2018-09-03T04:37:40.109Z,61
2018-09-03T04:42:42.552Z,64
2018-09-03T04:47:52.403Z,62
2018-09-03T04:52:48.051Z,62
2018-09-03T04:57:49.874Z,60
2018-09-03T05:02:52.497Z,68
2018-09-03T05:07:54.841Z,57
2018-09-03T05:12:57.521Z,61
2018-09-03T05:17:59.625Z,57
2018-09-03T05:23:02.087Z,58
2018-09-03T05:28:04.890Z,60
2018-09-03T05:33:07.334Z,56
2018-09-03T05:38:10.230Z,55
2018-09-03T05:43:12.130Z,54
2018-09-03T05:53:23.922Z,61
2018-09-03T05:58:19.151Z,56
2018-09-03T06:03:22.700Z,52
2018-09-03T06:08:24.192Z,63
2018-09-03T06:13:28.458Z,74
2018-09-03T06:18:28.928Z,58
2018-09-03T06:23:31.360Z,57
2018-09-03T06:28:33.812Z,57
2018-09-03T06:33:36.238Z,53
2018-09-03T06:38:41.130Z,54
2018-09-03T06:43:41.251Z,55
2018-09-03T06:48:43.559Z,53
2018-09-03T06:53:51.191Z,52
2018-09-03T06:59:08.201Z,51
2018-09-03T07:03:50.907Z,49
2018-09-03T07:08:53.465Z,50
2018-09-03T07:13:59.796Z,52
2018-09-03T07:18:58.223Z,52
2018-09-03T07:24:00.653Z,55
2018-09-03T07:29:03.094Z,51
2018-09-03T07:34:05.516Z,51
2018-09-03T07:44:10.556Z,53
2018-09-03T07:49:13.007Z,53
2018-09-03T07:54:15.375Z,50
2018-09-03T07:59:17.726Z,48
2018-09-03T08:04:20.219Z,45
2018-09-03T08:09:22.608Z,46
2018-09-03T08:14:36.220Z,49
2018-09-03T08:19:32.198Z,49
2018-09-03T08:29:32.366Z,48
2018-09-03T08:34:34.818Z,49
2018-09-03T08:39:46.150Z,49
